x

West Dixon Entrance (46205) Wave Buoy

1:00pm - Fri 17th Apr 2015 All times are PDT. -7 hours from GMT.

  • Sig Wave height 8.2ft
  • Peak Period 13s
  • Wind
    13mph, 18mph gusts
  • Sea Temp 47°f
  • Air Temp 44°f
  • Sea Pressure 1028mb
  • West Dixon Entrance
  • West Dixon Entrance

More Historic Weather Station data

Upgrade to MSW Pro to gain access to the past 30 days of data for over 8000 Wavebouys and Weather Stations around the globe.

Join Pro

Comparision Forecast

View Surf forecast
   
Fri 04/17 1:00pm 8ft 13s 13 18 mph 1028mb 47f 44f
12:00pm 8.5ft 10s 13 16 mph 1027mb 47f 45f
11:00am 8ft 12s 16 18 mph 1026.1mb 47f 45f
10:00am 9ft 12s 13 18 mph 1025.2mb 47f 45f
9:00am 8.5ft 14s 13 18 mph 1024.3mb 47f 45f
8:00am 9ft 12s 13 18 mph 1023.5mb 47f 45f
7:00am 9ft 11s 11 16 mph 1022.6mb 47f 44f
6:00am 9.5ft 12s 18 20 mph 1021.8mb 47f 44f
5:00am 9.5ft 12s 9 13 mph 1021.2mb 47f 44f
4:00am 10ft 14s 9 11 mph 1020.6mb 47f 42f
3:00am 10ft 13s 13 18 mph 1020mb 47f 42f
2:00am 11ft 13s 4 9 mph 1019.8mb 47f 43f
1:00am 9ft 11s 7 11 mph 1019.7mb 47f 42f
12:00am 11.5ft 14s 11 16 mph 1019.3mb 47f 42f
Thu 04/16 11:00pm 11ft 14s 9 13 mph 1019.6mb 47f 42f
10:00pm 10ft 13s 4 9 mph 1019.9mb 48f 43f
9:00pm 11ft 14s 9 11 mph 1019.9mb 48f 44f
8:00pm 11ft 14s 7 9 mph 1020.1mb 48f 46f
7:00pm 12ft 12s 9
mph
1020.9mb 48f 46f
6:00pm 11ft 11s 9 13 mph 1021.7mb 48f 46f
5:00pm 12ft 14s 9 13 mph 1021.9mb 48f 47f
4:00pm 12ft 14s 11 18 mph 1022.5mb 48f 46f
3:00pm 14ft 12s 13 18 mph 1023mb 48f 46f
2:00pm 12.5ft 14s 16 22 mph 1023mb 48f 46f
1:00pm 13.5ft 16s 11 16 mph 1023.1mb 48f 46f
12:00pm 13.5ft 15s 11 16 mph 1022.9mb 48f 46f
11:00am 13.5ft 16s 9 13 mph 1022.3mb 47f 46f
10:00am 14.5ft 16s 11 16 mph 1022mb 47f 46f
9:00am 13.5ft 14s 18 25 mph 1021.4mb 47f 45f
8:00am 14ft 17s 16 22 mph 1020.8mb 47f 46f
7:00am 14.5ft 16s 13 20 mph 1020.2mb 47f 46f
6:00am 15.5ft 15s 13 18 mph 1019.4mb 47f 46f
5:00am 15.5ft 14s 16 22 mph 1018.8mb 47f 46f
4:00am 17.5ft 14s 11 16 mph 1018.4mb 47f 45f
3:00am 18.5ft 13s 18 27 mph 1017.8mb 47f 45f
2:00am 17.5ft 14s 27 36 mph 1017.4mb 47f 44f
1:00am 18.5ft 17s 18 22 mph 1016.8mb 47f 46f
12:00am 16.5ft 17s 18 25 mph 1016.6mb 47f 46f
Wed 04/15 11:00pm 16.5ft 14s 18 31 mph 1016.4mb 47f 46f
10:00pm 16ft 14s 25 31 mph 1015.7mb 47f 47f
9:00pm 16ft 14s 22 29 mph 1015.7mb 47f 45f
8:00pm 15.5ft 14s 29 47 mph 1015.2mb 47f 45f
7:00pm 13.5ft 14s 25 31 mph 1015.4mb 47f 47f
6:00pm 14.5ft 14s 22 27 mph 1015.4mb 47f 47f
5:00pm 14ft 12s 22 29 mph 1015.5mb 47f 48f
4:00pm 14ft 11s 22 29 mph 1015.5mb 47f 47f
3:00pm 14ft 12s 22 29 mph 1015.3mb 47f 47f
2:00pm 14.5ft 12s 27 31 mph 1014.7mb 47f 47f